Time;durP1;ratioP1;P1;durP2;ratioP2;P2;SDS_P1;SDS_P2;PMS_P1;PMS_P2;Temp;Humidity;BMP_temperature;BMP_pressure;BME280_temperature;BME280_humidity;BME280_pressure;Samples;Min_cycle;Max_cycle;Signal;HPM_P1;HPM_P2
2022/02/04 00:05:56;;;;;;;45.03;12.75;;;29.10;70.40;;;;;;5083891;28;20039;-44
2022/02/04 00:08:44;;;;;;;53.13;13.95;;;29.10;70.30;;;;;;5084854;28;20024;-45
2022/02/04 00:24:37;;;;;;;69.13;11.93;;;29.00;68.80;;;;;;5083848;28;20025;-49
2022/02/04 00:27:13;;;;;;;42.15;11.52;;;29.00;68.90;;;;;;5074724;28;20024;-48
2022/02/04 00:29:51;;;;;;;37.30;11.57;;;29.00;69.20;;;;;;5071672;28;20211;-48
2022/02/04 00:32:21;;;;;;;52.10;11.95;;;29.00;69.30;;;;;;5076742;28;20013;-44
2022/02/04 00:34:54;;;;;;;32.83;11.38;;;29.00;69.50;;;;;;5076317;28;20028;-47
2022/02/04 00:40:17;;;;;;;74.90;13.07;;;28.90;70.20;;;;;;5048663;28;20043;-48
2022/02/04 00:42:43;;;;;;;52.65;12.20;;;28.90;70.60;;;;;;5077273;28;20044;-44
2022/02/04 00:45:22;;;;;;;44.75;12.30;;;28.90;70.60;;;;;;5072274;28;20028;-45
2022/02/04 00:47:56;;;;;;;38.10;11.20;;;28.90;71.10;;;;;;5066647;28;20087;-47
2022/02/04 00:50:32;;;;;;;44.53;11.43;;;28.80;71.00;;;;;;5086137;28;20036;-49
2022/02/04 00:53:14;;;;;;;39.08;12.27;;;28.90;70.80;;;;;;5086575;28;20025;-47
2022/02/04 00:56:07;;;;;;;36.88;11.52;;;28.80;70.60;;;;;;5086900;28;20199;-45
2022/02/04 01:28:36;;;;;;;22.30;11.20;;;28.70;67.60;;;;;;5066270;28;20438;-49
2022/02/04 01:31:02;;;;;;;;;;;28.60;67.50;;;;;;5066581;28;20255;-54
2022/02/04 01:33:30;;;;;;;22.35;11.38;;;28.60;67.40;;;;;;5066515;28;20249;-54
2022/02/04 01:36:08;;;;;;;21.10;11.73;;;28.60;67.40;;;;;;5066380;28;20036;-53
2022/02/04 01:38:45;;;;;;;22.92;11.73;;;28.60;67.50;;;;;;5065692;28;20316;-51
2022/02/04 01:41:12;;;;;;;31.50;13.32;;;28.60;67.30;;;;;;5065888;28;20036;-44
2022/02/04 01:43:50;;;;;;;23.90;11.82;;;28.60;67.40;;;;;;5065693;28;20055;-50
2022/02/04 01:46:26;;;;;;;25.73;12.48;;;28.60;67.40;;;;;;5065740;28;20021;-52
2022/02/04 01:48:59;;;;;;;22.65;11.73;;;28.50;67.30;;;;;;5067567;28;20032;-48
2022/02/04 01:51:29;;;;;;;23.30;11.85;;;28.50;67.30;;;;;;5064554;28;20052;-53
2022/02/04 01:53:55;;;;;;;22.67;12.18;;;28.50;67.30;;;;;;5064751;28;20300;-47
2022/02/04 01:56:22;;;;;;;19.52;11.20;;;28.50;67.20;;;;;;5064679;28;20078;-47
2022/02/04 01:58:49;;;;;;;16.05;11.48;;;28.50;67.40;;;;;;5064460;28;20032;-41
2022/02/04 02:01:16;;;;;;;18.25;11.13;;;28.50;67.20;;;;;;5064408;28;20118;-49
2022/02/04 02:03:43;;;;;;;19.65;12.00;;;28.50;67.20;;;;;;5064803;28;20185;-48
2022/02/04 02:06:11;;;;;;;20.17;12.20;;;28.50;67.00;;;;;;5065118;28;20059;-45
2022/02/04 02:08:40;;;;;;;22.23;12.38;;;28.50;67.00;;;;;;5064880;28;20297;-45
2022/02/04 02:11:09;;;;;;;18.08;11.45;;;28.50;66.90;;;;;;5065224;28;20033;-50
2022/02/04 02:13:46;;;;;;;21.25;12.00;;;28.50;66.80;;;;;;5064914;28;20037;-46
2022/02/04 02:16:43;;;;;;;17.75;11.50;;;28.50;66.80;;;;;;5065326;28;20029;-44
2022/02/04 02:35:55;;;;;;;16.30;11.25;;;28.50;66.40;;;;;;5084543;28;20027;-43
2022/02/04 02:43:49;;;;;;;16.45;11.23;;;28.50;66.20;;;;;;5075003;28;20123;-45
2022/02/04 03:00:05;;;;;;;21.92;10.93;;;28.40;66.00;;;;;;5061508;28;20332;-51
2022/02/04 03:02:33;;;;;;;26.27;11.77;;;28.40;66.00;;;;;;5085122;28;20315;-48
2022/02/04 03:04:59;;;;;;;20.63;11.82;;;28.40;65.90;;;;;;5072943;28;20032;-46
2022/02/04 03:07:26;;;;;;;18.75;10.48;;;28.40;66.00;;;;;;5064905;28;20029;-43
2022/02/04 03:09:52;;;;;;;18.40;10.88;;;28.40;66.00;;;;;;5064233;28;20020;-44
2022/02/04 03:12:19;;;;;;;19.98;11.10;;;28.40;66.00;;;;;;5062975;28;20273;-45
2022/02/04 03:14:46;;;;;;;21.85;10.82;;;28.40;65.90;;;;;;5063991;28;20052;-41
2022/02/04 03:17:14;;;;;;;32.10;10.73;;;28.40;66.00;;;;;;5064261;28;20088;-46
2022/02/04 03:19:46;;;;;;;18.33;10.88;;;28.40;66.00;;;;;;5064655;28;20052;-50
2022/02/04 03:22:14;;;;;;;16.00;9.70;;;28.40;65.90;;;;;;5064871;28;20037;-45
2022/02/04 03:24:44;;;;;;;15.48;10.02;;;28.40;66.10;;;;;;5062927;28;20021;-47
2022/02/04 03:27:13;;;;;;;14.80;9.52;;;28.30;66.00;;;;;;5065006;28;20036;-45
2022/02/04 03:30:02;;;;;;;16.75;9.82;;;28.30;66.00;;;;;;5064302;28;20013;-46
2022/02/04 03:32:29;;;;;;;18.27;10.07;;;28.30;66.00;;;;;;5064472;28;20033;-45
2022/02/04 03:34:56;;;;;;;13.65;9.55;;;28.30;65.90;;;;;;5064016;28;20232;-46
2022/02/04 03:37:22;;;;;;;12.80;9.13;;;28.30;65.90;;;;;;5064453;28;20040;-51
2022/02/04 03:39:49;;;;;;;17.77;9.45;;;28.30;65.90;;;;;;5063994;28;20204;-42
2022/02/04 03:42:16;;;;;;;17.98;9.10;;;28.30;65.90;;;;;;5064286;28;20078;-44
2022/02/04 03:44:42;;;;;;;12.05;8.80;;;28.30;65.90;;;;;;5063821;28;20025;-45
2022/02/04 03:47:09;;;;;;;20.33;9.80;;;28.30;65.80;;;;;;5063674;28;20013;-43
2022/02/04 03:49:36;;;;;;;15.98;9.32;;;28.30;65.80;;;;;;5063997;28;20033;-43
2022/02/04 03:52:03;;;;;;;15.00;9.48;;;28.30;65.80;;;;;;5064311;28;20020;-43
2022/02/04 03:54:29;;;;;;;14.98;8.93;;;28.30;65.80;;;;;;5063999;28;20033;-48
2022/02/04 03:56:56;;;;;;;14.35;9.40;;;28.30;65.80;;;;;;5064227;28;20300;-45
2022/02/04 03:59:25;;;;;;;19.90;9.07;;;28.30;65.80;;;;;;5062892;28;20066;-51
2022/02/04 04:01:53;;;;;;;16.05;9.10;;;28.20;65.70;;;;;;5062889;28;20225;-48
2022/02/04 04:04:19;;;;;;;14.43;9.25;;;28.30;65.80;;;;;;5062261;28;20021;-41
2022/02/04 04:06:48;;;;;;;13.90;8.50;;;28.30;65.70;;;;;;5066349;28;20082;-50
2022/02/04 04:09:14;;;;;;;13.23;8.80;;;28.20;65.60;;;;;;5068026;28;20033;-42
2022/02/04 04:11:45;;;;;;;24.10;9.43;;;28.20;65.60;;;;;;5067598;28;20313;-44
2022/02/04 04:14:14;;;;;;;15.50;9.20;;;28.30;65.70;;;;;;5067540;28;20054;-46
2022/02/04 04:16:41;;;;;;;15.57;9.40;;;28.20;65.50;;;;;;5067939;28;20036;-44
2022/02/04 04:19:08;;;;;;;17.05;9.10;;;28.20;65.60;;;;;;5067432;28;20025;-42
2022/02/04 04:21:35;;;;;;;15.63;9.60;;;28.20;65.70;;;;;;5085985;28;20100;-47
2022/02/04 04:24:01;;;;;;;14.43;9.25;;;28.20;65.80;;;;;;5087515;28;20024;-42
2022/02/04 04:26:28;;;;;;;15.85;9.07;;;28.20;65.70;;;;;;5087528;28;20043;-43
2022/02/04 04:28:54;;;;;;;16.30;9.13;;;28.20;65.80;;;;;;5087271;28;20244;-45
2022/02/04 04:31:21;;;;;;;16.52;9.77;;;28.20;65.80;;;;;;5087632;28;20099;-44
2022/02/04 04:33:49;;;;;;;13.23;9.15;;;28.20;65.80;;;;;;5087148;28;20023;-49
2022/02/04 04:36:17;;;;;;;15.32;9.00;;;28.20;66.00;;;;;;5087322;28;20044;-45
2022/02/04 04:39:01;;;;;;;12.00;9.40;;;28.20;66.00;;;;;;5086757;28;20381;-43
2022/02/04 04:41:53;;;;;;;14.70;9.43;;;28.10;66.00;;;;;;5067200;28;20288;-46
2022/02/04 05:30:44;;;;;;;16.40;10.18;;;28.00;66.30;;;;;;5066243;28;20020;-42
2022/02/04 05:33:11;;;;;;;14.45;9.70;;;27.90;66.20;;;;;;5074321;28;20308;-42
2022/02/04 05:35:37;;;;;;;17.38;9.93;;;28.00;66.20;;;;;;5085989;28;20023;-47
2022/02/04 05:38:05;;;;;;;18.77;9.98;;;27.90;66.10;;;;;;5086273;28;20020;-46
2022/02/04 05:40:39;;;;;;;16.67;10.02;;;27.90;66.10;;;;;;5086154;28;20118;-43
2022/02/04 05:43:33;;;;;;;12.30;10.10;;;27.90;66.10;;;;;;5085921;28;20300;-43
2022/02/04 05:46:01;;;;;;;15.38;10.05;;;27.90;66.10;;;;;;5085225;28;20040;-49
2022/02/04 05:48:29;;;;;;;;;;;27.90;66.20;;;;;;5086229;28;20182;-41
2022/02/04 05:51:22;;;;;;;13.55;10.13;;;27.90;66.40;;;;;;5085837;28;19950;-41
2022/02/04 05:54:05;;;;;;;;;;;27.90;66.30;;;;;;5086053;28;20324;-43
2022/02/04 05:56:41;;;;;;;15.73;10.02;;;27.80;66.30;;;;;;5085756;28;20097;-44
2022/02/04 06:04:35;;;;;;;20.00;10.88;;;27.80;66.70;;;;;;5085502;28;20040;-45
2022/02/04 06:14:54;;;;;;;14.15;10.00;;;27.80;66.90;;;;;;5085345;28;20327;-49
2022/02/04 06:23:27;;;;;;;18.90;11.60;;;27.70;67.10;;;;;;5085092;28;20036;-44
2022/02/04 06:25:54;;;;;;;17.23;10.73;;;27.70;67.20;;;;;;5084981;28;20025;-43
2022/02/04 06:28:21;;;;;;;17.08;10.60;;;27.70;67.30;;;;;;5084108;28;20025;-47
2022/02/04 06:30:47;;;;;;;19.17;11.57;;;27.70;67.40;;;;;;5085041;28;20035;-50
2022/02/04 06:33:14;;;;;;;16.08;10.70;;;27.70;67.40;;;;;;5084759;28;20028;-50
2022/02/04 06:35:44;;;;;;;15.98;10.40;;;27.70;67.30;;;;;;5084873;28;20025;-54
2022/02/04 06:38:10;;;;;;;15.55;10.85;;;27.70;67.10;;;;;;5084963;28;20035;-41
2022/02/04 06:40:37;;;;;;;18.25;10.38;;;27.70;67.10;;;;;;5084675;28;20040;-42
2022/02/04 06:43:04;;;;;;;14.25;9.55;;;27.70;67.10;;;;;;5084673;28;20028;-48
2022/02/04 06:45:31;;;;;;;13.38;10.15;;;27.70;67.00;;;;;;5084632;28;20332;-45
2022/02/04 06:47:57;;;;;;;15.73;10.35;;;27.70;67.20;;;;;;5084528;28;20070;-44
2022/02/04 06:50:24;;;;;;;13.85;10.15;;;27.70;67.20;;;;;;5084608;28;20023;-41
2022/02/04 06:52:53;;;;;;;14.95;9.63;;;27.70;67.20;;;;;;5084540;28;20206;-49
2022/02/04 06:55:21;;;;;;;14.57;9.82;;;27.70;67.30;;;;;;5083158;28;20048;-44
2022/02/04 06:57:48;;;;;;;14.80;10.05;;;27.70;67.30;;;;;;5084403;28;20092;-42
2022/02/04 07:00:18;;;;;;;18.25;10.25;;;27.70;67.40;;;;;;5084431;28;20097;-41
2022/02/04 07:02:47;;;;;;;15.88;10.55;;;27.70;67.40;;;;;;5084465;28;20276;-51
2022/02/04 07:05:14;;;;;;;16.25;10.07;;;27.70;67.30;;;;;;5084273;28;20078;-43
2022/02/04 07:07:47;;;;;;;18.17;10.45;;;27.70;67.30;;;;;;5084772;28;20265;-43
2022/02/04 07:10:27;;;;;;;15.70;10.73;;;27.70;67.30;;;;;;5084126;28;20031;-50
2022/02/04 07:13:01;;;;;;;17.58;11.27;;;27.70;67.30;;;;;;5084069;28;20044;-42
2022/02/04 07:19:44;;;;;;;18.67;11.63;;;27.70;67.20;;;;;;5084507;28;20017;-42
2022/02/04 07:20:47;;;;;;;15.43;11.18;;;27.60;67.20;;;;;;5084065;28;20320;-43
2022/02/04 07:23:14;;;;;;;15.82;10.93;;;27.70;67.30;;;;;;5084187;28;20020;-44
2022/02/04 07:25:40;;;;;;;16.75;11.35;;;27.70;67.30;;;;;;5084015;28;20062;-50
2022/02/04 07:28:07;;;;;;;18.95;10.85;;;27.70;67.20;;;;;;5083983;28;20051;-46
2022/02/04 07:30:33;;;;;;;18.83;11.27;;;27.70;67.10;;;;;;5084345;28;20088;-43
2022/02/04 07:33:14;;;;;;;17.40;11.00;;;27.70;67.10;;;;;;5083954;28;20112;-50
2022/02/04 07:38:49;;;;;;;15.50;10.52;;;27.60;66.90;;;;;;5083858;28;20065;-42
2022/02/04 07:41:18;;;;;;;17.10;10.93;;;27.70;67.00;;;;;;5084079;28;20024;-45
2022/02/04 07:43:44;;;;;;;15.43;10.65;;;27.70;67.20;;;;;;5083615;28;20074;-46
2022/02/04 07:46:13;;;;;;;17.35;11.52;;;27.70;67.50;;;;;;5083867;28;20346;-47
2022/02/04 07:48:40;;;;;;;15.45;10.90;;;27.70;67.40;;;;;;5083756;28;20032;-47
2022/02/04 07:51:07;;;;;;;14.18;9.88;;;27.70;67.50;;;;;;5083821;28;20350;-42
2022/02/04 07:53:34;;;;;;;15.50;10.13;;;27.60;67.30;;;;;;5083838;28;20351;-49
2022/02/04 07:56:02;;;;;;;13.65;9.80;;;27.70;67.40;;;;;;5083827;28;20032;-44
2022/02/04 07:58:29;;;;;;;15.45;9.75;;;27.70;67.50;;;;;;5083692;28;20123;-42
2022/02/04 08:00:56;;;;;;;14.73;10.60;;;27.70;67.60;;;;;;5083958;28;20125;-43
2022/02/04 08:03:38;;;;;;;15.63;10.00;;;27.70;67.60;;;;;;5083800;28;20020;-42
2022/02/04 08:06:16;;;;;;;15.75;10.20;;;27.60;67.60;;;;;;5083631;28;20078;-44
2022/02/04 08:09:14;;;;;;;16.15;10.10;;;27.60;67.70;;;;;;5083593;28;20042;-43
2022/02/04 08:22:26;;;;;;;15.57;10.15;;;27.60;68.10;;;;;;5083980;28;20103;-46
2022/02/04 08:30:40;;;;;;;14.95;9.88;;;27.60;68.20;;;;;;5083408;28;20051;-47
2022/02/04 08:36:12;;;;;;;17.05;10.20;;;27.60;68.50;;;;;;5083412;28;20263;-42
2022/02/04 08:38:52;;;;;;;14.52;9.95;;;27.60;68.40;;;;;;5083065;28;20037;-47
2022/02/04 08:47:14;;;;;;;13.90;9.85;;;27.60;68.70;;;;;;5083527;28;20200;-43
2022/02/04 08:52:44;;;;;;;16.08;12.55;;;27.60;68.80;;;;;;5085434;28;20023;-45
2022/02/04 08:55:23;;;;;;;25.70;14.07;;;27.60;68.90;;;;;;5086697;28;20032;-43
2022/02/04 08:58:01;;;;;;;18.52;13.75;;;27.60;69.00;;;;;;5086776;28;20032;-42
2022/02/04 09:03:38;;;;;;;14.35;10.32;;;27.60;69.20;;;;;;5053073;28;20096;-45
2022/02/04 09:06:11;;;;;;;17.48;9.85;;;27.60;69.20;;;;;;5086635;28;20379;-48
2022/02/04 09:08:42;;;;;;;14.68;9.23;;;27.60;69.20;;;;;;5086517;28;20020;-42
2022/02/04 09:11:14;;;;;;;18.60;9.02;;;27.60;69.20;;;;;;5086449;28;20040;-43
2022/02/04 09:19:16;;;;;;;22.48;9.65;;;27.60;69.30;;;;;;5086540;28;20035;-42
2022/02/04 09:24:16;;;;;;;18.80;14.18;;;27.60;69.40;;;;;;5086314;28;20017;-44
2022/02/04 09:26:43;;;;;;;14.35;10.13;;;27.50;69.50;;;;;;5086603;28;20251;-49
2022/02/04 09:29:10;;;;;;;20.58;12.00;;;27.60;69.60;;;;;;5086093;28;20013;-42
2022/02/04 09:31:40;;;;;;;24.48;15.13;;;27.60;69.70;;;;;;5086408;28;20041;-42
2022/02/04 09:34:08;;;;;;;20.40;10.82;;;27.50;69.70;;;;;;5086168;28;20111;-40
2022/02/04 09:36:35;;;;;;;10.95;8.77;;;27.60;69.80;;;;;;5086560;28;20044;-42
2022/02/04 09:39:04;;;;;;;13.98;9.30;;;27.50;69.70;;;;;;5085982;28;20047;-45
2022/02/04 09:41:31;;;;;;;11.88;8.40;;;27.50;69.70;;;;;;5086140;28;20028;-44
2022/02/04 09:43:57;;;;;;;12.40;8.30;;;27.50;69.70;;;;;;5085737;28;20059;-44
2022/02/04 09:46:24;;;;;;;17.98;12.65;;;27.50;69.80;;;;;;5085956;28;20054;-42
2022/02/04 09:48:56;;;;;;;13.93;9.20;;;27.50;69.90;;;;;;5085673;28;20027;-45
2022/02/04 09:51:32;;;;;;;15.40;9.40;;;27.50;69.80;;;;;;5085976;28;20094;-46
2022/02/04 10:11:01;;;;;;;16.17;9.63;;;27.50;70.50;;;;;;5051690;28;20040;-48
2022/02/04 10:13:48;;;;;;;13.80;9.45;;;27.40;70.60;;;;;;5084939;28;20044;-44
2022/02/04 10:19:14;;;;;;;17.33;9.00;;;27.50;70.80;;;;;;5085240;28;20096;-41
2022/02/04 10:21:29;;;;;;;11.63;9.02;;;27.50;70.80;;;;;;5082295;28;20028;-39
2022/02/04 10:24:00;;;;;;;14.25;9.02;;;27.50;71.00;;;;;;5085096;28;20040;-50
2022/02/04 10:26:27;;;;;;;15.10;9.27;;;27.50;70.90;;;;;;5085294;28;20054;-43
2022/02/04 10:28:54;;;;;;;24.58;10.20;;;27.50;71.00;;;;;;5084852;28;20035;-44
2022/02/04 10:31:28;;;;;;;22.02;9.57;;;27.50;71.00;;;;;;5085169;28;20331;-45
2022/02/04 10:34:12;;;;;;;25.48;11.02;;;27.40;71.20;;;;;;5084871;28;20092;-44
2022/02/04 10:42:56;;;;;;;18.70;10.50;;;27.40;71.40;;;;;;5086166;28;20115;-42
2022/02/04 10:51:00;;;;;;;17.90;10.30;;;27.40;71.50;;;;;;5085368;28;20031;-48
2022/02/04 11:04:16;;;;;;;25.75;10.20;;;27.40;71.80;;;;;;5084242;28;20081;-54
2022/02/04 11:09:31;;;;;;;48.25;10.73;;;27.40;72.20;;;;;;5084991;28;20032;-45
2022/02/04 11:49:13;;;;;;;24.33;11.15;;;27.20;74.40;;;;;;5083881;28;20082;-47
2022/02/04 11:56:58;;;;;;;25.55;10.68;;;27.20;76.70;;;;;;5084269;28;20024;-46
2022/02/04 11:59:35;;;;;;;22.38;10.60;;;27.20;77.60;;;;;;5083701;28;20035;-45
2022/02/04 12:02:22;;;;;;;21.23;10.10;;;27.20;77.60;;;;;;5084375;28;20300;-46
2022/02/04 12:04:49;;;;;;;21.70;10.63;;;27.20;78.30;;;;;;5069944;28;20100;-53
2022/02/04 12:07:37;;;;;;;20.52;10.80;;;27.20;78.50;;;;;;5082939;28;20064;-51
2022/02/04 12:10:30;;;;;;;24.15;11.70;;;27.20;79.60;;;;;;5083659;28;20146;-53
2022/02/04 12:12:59;;;;;;;22.10;10.85;;;27.20;79.60;;;;;;5083551;28;20094;-55
2022/02/04 12:15:31;;;;;;;18.90;10.38;;;27.20;80.40;;;;;;5083623;28;20027;-57
2022/02/04 12:17:58;;;;;;;18.55;9.77;;;27.20;80.40;;;;;;5083776;28;20073;-54
2022/02/04 12:20:53;;;;;;;16.52;9.18;;;27.20;80.50;;;;;;5083522;28;20034;-48
2022/02/04 12:23:29;;;;;;;13.77;8.73;;;27.10;81.00;;;;;;5081393;28;20105;-52
2022/02/04 12:25:56;;;;;;;12.15;8.35;;;27.10;81.10;;;;;;5083327;28;20039;-57
2022/02/04 12:28:39;;;;;;;13.50;8.40;;;27.10;81.50;;;;;;5086752;28;20154;-54
2022/02/04 12:31:08;;;;;;;14.68;9.00;;;27.10;81.90;;;;;;5087171;28;20028;-52
2022/02/04 12:33:44;;;;;;;12.00;9.25;;;27.10;82.00;;;;;;5087212;28;20028;-51
2022/02/04 12:36:26;;;;;;;13.23;9.38;;;27.00;82.40;;;;;;5087212;28;20025;-46
2022/02/04 12:38:56;;;;;;;13.93;9.98;;;27.00;82.40;;;;;;5085980;28;20039;-46
2022/02/04 12:41:36;;;;;;;12.75;9.80;;;27.00;82.30;;;;;;5087219;28;20024;-49
2022/02/04 12:44:10;;;;;;;11.18;9.38;;;27.00;82.50;;;;;;5087142;28;20035;-46
2022/02/04 12:46:47;;;;;;;15.25;9.48;;;27.00;82.80;;;;;;5087077;28;20027;-51
2022/02/04 12:49:16;;;;;;;12.27;10.23;;;27.00;82.40;;;;;;5087041;28;20082;-44
2022/02/04 12:52:10;;;;;;;13.05;10.48;;;27.00;82.60;;;;;;5087168;28;20033;-50
2022/02/04 12:54:51;;;;;;;12.30;10.45;;;27.00;82.70;;;;;;5087108;28;20091;-43
2022/02/04 12:57:29;;;;;;;14.93;10.63;;;26.90;82.90;;;;;;5087043;28;20059;-50
2022/02/04 13:11:03;;;;;;;12.75;10.88;;;26.90;83.70;;;;;;5086613;28;20053;-47
2022/02/04 13:13:59;;;;;;;16.85;10.60;;;26.90;83.60;;;;;;5086468;28;20255;-45
2022/02/04 13:16:29;;;;;;;14.30;9.75;;;26.90;83.80;;;;;;5086003;28;20050;-45
2022/02/04 13:19:05;;;;;;;12.55;9.88;;;26.80;83.70;;;;;;5086479;28;20028;-51
2022/02/04 13:21:33;;;;;;;10.10;9.07;;;26.90;83.70;;;;;;5085146;28;20037;-49
2022/02/04 13:24:07;;;;;;;11.50;9.35;;;26.90;83.80;;;;;;5085071;28;20029;-47
2022/02/04 13:26:35;;;;;;;10.95;9.27;;;26.90;83.70;;;;;;5086432;28;20032;-52
2022/02/04 13:29:04;;;;;;;13.02;9.43;;;26.90;83.50;;;;;;5086148;28;20028;-51
2022/02/04 13:31:35;;;;;;;18.00;9.05;;;26.90;83.60;;;;;;5086329;28;20301;-47
2022/02/04 13:34:09;;;;;;;10.23;8.95;;;26.90;83.60;;;;;;5086161;28;20021;-45
2022/02/04 13:36:45;;;;;;;13.80;9.70;;;27.00;84.20;;;;;;5086376;28;20037;-47
2022/02/04 13:39:48;;;;;;;11.43;9.50;;;27.00;84.20;;;;;;5085995;28;20181;-48
2022/02/04 13:42:35;;;;;;;10.32;9.18;;;27.00;84.30;;;;;;5086554;28;20047;-46
2022/02/04 13:45:12;;;;;;;12.38;8.88;;;27.00;84.50;;;;;;5085936;28;20031;-46
2022/02/04 13:47:48;;;;;;;10.63;8.45;;;27.00;84.70;;;;;;5086457;28;20194;-53
2022/02/04 13:53:10;;;;;;;17.23;9.32;;;27.00;84.80;;;;;;5085836;28;20029;-45
2022/02/04 14:01:14;;;;;;;11.90;9.05;;;27.10;85.10;;;;;;5086035;28;20603;-49
2022/02/04 14:03:49;;;;;;;11.75;8.88;;;27.10;85.50;;;;;;5085375;28;20334;-48
2022/02/04 14:06:23;;;;;;;10.90;8.82;;;27.10;85.60;;;;;;5085546;28;20063;-46
2022/02/04 14:11:46;;;;;;;9.15;8.18;;;27.10;85.90;;;;;;5085499;28;20025;-46
2022/02/04 14:14:21;;;;;;;10.32;8.10;;;27.10;86.00;;;;;;5068357;28;20040;-52
2022/02/04 14:16:56;;;;;;;10.80;8.60;;;27.10;85.90;;;;;;5085661;28;20034;-48
2022/02/04 14:19:25;;;;;;;11.23;8.43;;;27.20;85.80;;;;;;5084240;28;20036;-51
2022/02/04 14:21:51;;;;;;;8.88;7.63;;;27.20;86.00;;;;;;5085367;28;20020;-46
2022/02/04 14:24:19;;;;;;;10.57;7.63;;;27.20;85.80;;;;;;5085211;28;20036;-46
2022/02/04 14:26:48;;;;;;;9.80;7.40;;;27.20;85.90;;;;;;5085221;28;20195;-47
2022/02/04 14:32:00;;;;;;;9.23;8.02;;;27.20;85.60;;;;;;5085538;28;20312;-48
2022/02/04 14:51:06;;;;;;;12.23;9.77;;;27.20;86.10;;;;;;5083868;28;20015;-56
2022/02/04 14:59:32;;;;;;;11.70;10.48;;;27.30;85.90;;;;;;5084609;28;20066;-48
2022/02/04 15:01:48;;;;;;;12.13;10.90;;;27.30;85.80;;;;;;5084311;28;20028;-49
2022/02/04 15:04:25;;;;;;;12.32;11.02;;;27.30;85.80;;;;;;5084228;28;20095;-47
2022/02/04 15:06:59;;;;;;;12.25;10.95;;;27.30;85.80;;;;;;5084421;28;20200;-48
2022/02/04 15:09:26;;;;;;;12.35;11.05;;;27.30;85.70;;;;;;5084220;28;20074;-45
2022/02/04 15:11:52;;;;;;;12.70;11.13;;;27.30;85.60;;;;;;5084235;28;20044;-46
2022/02/04 15:14:19;;;;;;;11.93;10.73;;;27.30;85.60;;;;;;5084027;28;20028;-50
2022/02/04 15:16:46;;;;;;;13.05;11.35;;;27.30;85.60;;;;;;5084372;28;20028;-50
2022/02/04 15:19:13;;;;;;;13.40;11.57;;;27.30;85.50;;;;;;5084248;28;20028;-47
2022/02/04 15:21:44;;;;;;;13.02;11.32;;;27.30;85.60;;;;;;5084144;28;20189;-46
2022/02/04 15:24:11;;;;;;;15.65;11.02;;;27.30;85.90;;;;;;5084010;28;20027;-54
2022/02/04 15:26:38;;;;;;;21.73;12.35;;;27.30;86.00;;;;;;5084499;28;20021;-46
2022/02/04 15:29:09;;;;;;;18.52;11.45;;;27.30;86.00;;;;;;5083983;28;20325;-51
2022/02/04 15:31:47;;;;;;;17.43;12.00;;;27.30;86.00;;;;;;5084467;28;20029;-56
2022/02/04 15:34:15;;;;;;;14.00;11.23;;;27.30;86.10;;;;;;5084080;28;20051;-52
2022/02/04 15:36:46;;;;;;;12.57;10.77;;;27.30;86.10;;;;;;5084350;28;20037;-49
2022/02/04 15:39:15;;;;;;;15.77;11.77;;;27.30;86.30;;;;;;5083889;28;20020;-46
2022/02/04 15:41:41;;;;;;;13.27;10.48;;;27.20;86.20;;;;;;5084028;28;20024;-52
2022/02/04 15:44:17;;;;;;;14.25;10.55;;;27.30;86.50;;;;;;5083670;28;20239;-52
2022/02/04 15:49:54;;;;;;;12.13;10.07;;;27.30;86.60;;;;;;5083926;28;20084;-52
2022/02/04 15:55:54;;;;;;;15.32;10.50;;;27.20;86.40;;;;;;5060228;28;20324;-46
2022/02/04 15:58:14;;;;;;;12.55;10.85;;;27.20;86.30;;;;;;5083512;28;20078;-47
2022/02/04 16:05:52;;;;;;;13.00;10.65;;;27.20;86.10;;;;;;5088216;28;20039;-57
2022/02/04 16:08:20;;;;;;;14.05;10.38;;;27.20;86.30;;;;;;5088471;28;20245;-51
2022/02/04 16:16:29;;;;;;;11.75;9.48;;;27.20;86.40;;;;;;5087854;28;19979;-43
2022/02/04 16:21:46;;;;;;;10.27;9.18;;;27.20;86.70;;;;;;5087770;28;20064;-44
2022/02/04 16:27:09;;;;;;;8.80;7.88;;;27.20;86.80;;;;;;5088041;28;20048;-45
2022/02/04 16:29:41;;;;;;;12.45;8.27;;;27.20;86.60;;;;;;5087527;28;20084;-51
2022/02/04 16:32:07;;;;;;;9.53;7.53;;;27.20;86.60;;;;;;5087622;28;20237;-52
2022/02/04 16:34:34;;;;;;;10.35;8.15;;;27.20;86.60;;;;;;5087544;28;20016;-45
2022/02/04 16:37:15;;;;;;;9.02;7.10;;;27.20;86.60;;;;;;5087527;28;20052;-46
2022/02/04 16:39:43;;;;;;;9.95;7.15;;;27.20;86.50;;;;;;5087269;28;20052;-44
2022/02/04 16:42:15;;;;;;;8.45;6.88;;;27.20;86.70;;;;;;5087405;28;20035;-44
2022/02/04 16:44:42;;;;;;;8.57;7.45;;;27.20;86.60;;;;;;5087367;28;20340;-48
2022/02/04 16:47:09;;;;;;;10.40;7.50;;;27.20;86.80;;;;;;5087856;28;20024;-47
2022/02/04 16:49:37;;;;;;;9.52;7.30;;;27.20;86.80;;;;;;5087359;28;20025;-46
2022/02/04 16:52:06;;;;;;;9.70;7.15;;;27.20;86.80;;;;;;5087918;28;20016;-54
2022/02/04 16:54:37;;;;;;;8.70;7.03;;;27.20;87.00;;;;;;5086295;28;20028;-57
2022/02/04 16:57:04;;;;;;;9.73;7.43;;;27.20;87.20;;;;;;5087542;28;20037;-54
2022/02/04 18:02:56;;;;;;;18.77;10.75;;;26.50;90.80;;;;;;5080658;27;20502;-53
2022/02/04 18:05:37;;;;;;;14.10;9.10;;;27.00;90.50;;;;;;5081823;28;20067;-46
2022/02/04 18:08:04;;;;;;;10.48;8.50;;;27.00;90.60;;;;;;5081362;28;20108;-48
2022/02/04 18:10:31;;;;;;;11.52;8.88;;;27.00;90.30;;;;;;5081258;28;20249;-46
2022/02/04 18:12:58;;;;;;;10.98;7.90;;;27.10;90.40;;;;;;5081563;28;20013;-55
2022/02/04 18:15:25;;;;;;;9.45;7.80;;;27.10;90.20;;;;;;5081845;28;20096;-51
2022/02/04 18:17:51;;;;;;;17.17;7.60;;;27.10;90.10;;;;;;5082168;28;20019;-49
2022/02/04 18:20:18;;;;;;;10.40;7.55;;;27.10;90.00;;;;;;5081312;28;20255;-47
2022/02/04 18:22:44;;;;;;;10.80;7.40;;;27.20;89.90;;;;;;5080044;28;20039;-46
2022/02/04 18:25:11;;;;;;;8.43;7.20;;;27.20;89.70;;;;;;5081267;28;20024;-53
2022/02/04 18:27:39;;;;;;;9.90;7.35;;;27.20;89.60;;;;;;5081621;28;20033;-53
2022/02/04 18:30:06;;;;;;;8.38;7.30;;;27.20;89.40;;;;;;5080739;28;20054;-47
2022/02/04 18:32:35;;;;;;;8.02;7.22;;;27.20;89.30;;;;;;5080615;28;20025;-50
2022/02/04 18:35:02;;;;;;;9.68;7.28;;;27.20;89.30;;;;;;5081466;28;20028;-51
2022/02/04 18:37:36;;;;;;;10.98;7.13;;;27.20;89.20;;;;;;5081968;28;20312;-47
2022/02/04 18:45:19;;;;;;;9.65;7.55;;;27.20;88.90;;;;;;5080726;28;20028;-51
2022/02/04 18:48:02;;;;;;;8.77;7.68;;;27.20;88.60;;;;;;5080486;28;20008;-48
2022/02/04 18:50:46;;;;;;;;;;;27.20;88.50;;;;;;5080563;28;20032;-53
2022/02/04 18:58:35;;;;;;;8.60;7.70;;;27.20;88.10;;;;;;5061323;28;20347;-47
2022/02/04 19:01:01;;;;;;;8.13;7.18;;;27.20;87.90;;;;;;5059029;28;20056;-50
2022/02/04 19:03:43;;;;;;;9.10;7.40;;;27.20;87.70;;;;;;5047616;28;20027;-44
2022/02/04 19:08:42;;;;;;;9.73;6.90;;;27.20;87.30;;;;;;5046665;28;20299;-44
2022/02/04 19:11:09;;;;;;;10.10;7.43;;;27.30;87.50;;;;;;5046596;28;20384;-46
2022/02/04 19:13:41;;;;;;;8.65;7.07;;;27.30;87.20;;;;;;5046581;28;20063;-44
2022/02/04 19:16:28;;;;;;;9.65;7.47;;;27.30;87.20;;;;;;5046859;28;20044;-47
2022/02/04 19:21:41;;;;;;;8.55;6.95;;;27.30;86.90;;;;;;5046687;28;20025;-47
2022/02/04 19:24:10;;;;;;;8.27;7.32;;;27.30;86.80;;;;;;5046253;28;20029;-47
2022/02/04 19:26:38;;;;;;;9.38;7.40;;;27.30;86.90;;;;;;5046743;28;20040;-49
2022/02/04 19:29:06;;;;;;;12.50;7.53;;;27.30;86.70;;;;;;5046398;28;20021;-48
2022/02/04 19:31:39;;;;;;;10.68;8.32;;;27.30;86.80;;;;;;5046564;28;20025;-47
2022/02/04 19:34:06;;;;;;;8.98;7.45;;;27.40;86.70;;;;;;5046015;28;20078;-44
2022/02/04 19:36:34;;;;;;;11.73;7.57;;;27.30;86.40;;;;;;5046553;28;20017;-49
2022/02/04 19:39:03;;;;;;;10.63;7.65;;;27.40;86.50;;;;;;5046022;28;20041;-46
2022/02/04 19:41:32;;;;;;;8.30;7.50;;;27.40;86.40;;;;;;5046495;28;20053;-45
2022/02/04 19:43:59;;;;;;;9.38;7.65;;;27.40;86.30;;;;;;5046469;28;20052;-43
2022/02/04 19:46:31;;;;;;;9.10;7.47;;;27.40;86.30;;;;;;5046633;28;20037;-44
2022/02/04 19:49:01;;;;;;;9.15;8.25;;;27.40;86.40;;;;;;5045736;28;20068;-53
2022/02/04 19:51:53;;;;;;;10.05;8.15;;;27.50;86.40;;;;;;5046100;28;20198;-46
2022/02/04 20:24:54;;;;;;;12.15;7.85;;;27.60;85.70;;;;;;5045107;28;20359;-50
2022/02/04 20:27:22;;;;;;;10.95;7.88;;;27.60;85.50;;;;;;5042568;28;20025;-48
2022/02/04 20:29:49;;;;;;;11.57;8.25;;;27.70;85.70;;;;;;5044787;28;20025;-56
2022/02/04 20:32:16;;;;;;;12.18;7.82;;;27.70;85.50;;;;;;5044790;28;20037;-48
2022/02/04 20:34:42;;;;;;;12.25;8.60;;;27.70;85.40;;;;;;5044609;28;20360;-47
2022/02/04 20:37:09;;;;;;;10.65;8.00;;;27.70;85.30;;;;;;5044808;28;20047;-46
2022/02/04 20:39:43;;;;;;;10.73;8.15;;;27.70;84.60;;;;;;5044766;28;20021;-50